Time;durP1;ratioP1;P1;durP2;ratioP2;P2;SDS_P1;SDS_P2;PMS_P1;PMS_P2;Temp;Humidity;BMP_temperature;BMP_pressure;BME280_temperature;BME280_humidity;BME280_pressure;Samples;Min_cycle;Max_cycle;Signal;HPM_P1;HPM_P2
2022/11/13 00:01:12;;;;;;;14.23;10.93;;;;;;;9.25;77.62;102433.69;3558663;40;20053;-62
2022/11/13 00:03:38;;;;;;;14.25;10.80;;;;;;;8.39;77.53;102271.84;3561089;40;20064;-62
2022/11/13 00:06:04;;;;;;;12.88;10.55;;;;;;;9.25;77.54;102422.97;3559539;40;20061;-63
2022/11/13 00:08:30;;;;;;;16.38;12.00;;;;;;;9.23;77.19;102418.59;3561139;40;20053;-64
2022/11/13 00:11:17;;;;;;;17.50;12.35;;;;;;;9.23;77.43;102429.31;3558471;40;20052;-64
2022/11/13 00:13:43;;;;;;;16.33;12.25;;;;;;;8.42;76.67;102290.50;3563684;40;20102;-63
2022/11/13 00:16:16;;;;;;;15.13;11.93;;;;;;;9.15;76.64;102421.50;3556683;40;20204;-63
2022/11/13 00:18:43;;;;;;;15.45;11.20;;;;;;;9.12;76.60;102413.53;3558737;40;20385;-64
2022/11/13 00:21:19;;;;;;;15.52;12.23;;;;;;;9.02;76.89;102402.22;3557049;40;20721;-64
2022/11/13 00:23:45;;;;;;;14.95;11.68;;;;;;;8.22;77.38;102269.63;3560322;40;20049;-64
2022/11/13 00:26:16;;;;;;;17.88;12.02;;;;;;;9.01;77.32;102405.81;3557172;40;20057;-63
2022/11/13 00:28:42;;;;;;;14.98;11.85;;;;;;;8.99;77.72;102409.47;3558772;40;20065;-64
2022/11/13 00:31:11;;;;;;;15.13;12.15;;;;;;;8.47;77.37;102323.41;3558176;40;20068;-64
2022/11/13 00:33:37;;;;;;;15.60;11.52;;;;;;;8.04;77.38;102257.63;3563697;40;20049;-63
2022/11/13 00:36:04;;;;;;;16.08;12.40;;;;;;;8.94;77.65;102408.72;3557097;40;20065;-63
2022/11/13 00:38:31;;;;;;;17.75;12.20;;;;;;;8.86;77.40;102392.88;3560204;40;20061;-64
2022/11/13 00:40:57;;;;;;;14.57;12.10;;;;;;;8.89;76.91;102403.50;3558733;40;20068;-64
2022/11/13 00:43:23;;;;;;;15.23;11.30;;;;;;;8.29;77.05;102291.75;3558928;40;20053;-64
2022/11/13 00:45:48;;;;;;;14.88;12.23;;;;;;;8.82;77.36;102380.47;3556572;40;20059;-64
2022/11/13 00:48:14;;;;;;;20.50;14.00;;;;;;;8.82;76.92;102385.84;3560025;40;20106;-63
2022/11/13 00:50:39;;;;;;;17.15;13.75;;;;;;;8.84;76.19;102394.69;3556736;40;20057;-64
2022/11/13 00:53:05;;;;;;;17.55;13.60;;;;;;;8.76;76.07;102378.84;3557400;40;20345;-64
2022/11/13 00:55:31;;;;;;;14.95;12.35;;;;;;;8.75;75.81;102385.16;3559754;40;20057;-64
2022/11/13 00:57:56;;;;;;;16.38;11.65;;;;;;;8.70;76.67;102378.16;3559213;40;20053;-63
2022/11/13 01:00:22;;;;;;;13.93;10.55;;;;;;;8.67;77.20;102378.25;3555783;40;20058;-63
2022/11/13 01:02:48;;;;;;;13.50;10.98;;;;;;;8.59;76.85;102374.00;3558588;40;20695;-64
2022/11/13 01:05:13;;;;;;;14.70;10.55;;;;;;;8.52;77.80;102375.06;3561396;40;20397;-65
2022/11/13 01:07:39;;;;;;;13.52;10.45;;;;;;;8.42;77.95;102370.03;3558690;40;20062;-64
2022/11/13 01:10:05;;;;;;;16.10;12.63;;;;;;;8.34;77.75;102360.38;3559316;40;20057;-64
2022/11/13 01:12:31;;;;;;;17.92;12.88;;;;;;;7.75;78.38;102260.25;3557705;40;20397;-63
2022/11/13 01:14:57;;;;;;;16.83;12.30;;;;;;;7.60;77.93;102235.63;3559164;40;20057;-64
2022/11/13 01:17:22;;;;;;;13.82;10.30;;;;;;;8.34;78.48;102371.09;3556950;40;20065;-63
2022/11/13 01:19:48;;;;;;;12.80;10.77;;;;;;;8.31;78.32;102364.94;3559495;40;20096;-63
2022/11/13 01:22:13;;;;;;;16.52;10.80;;;;;;;8.20;78.05;102358.97;3556158;40;20140;-64
2022/11/13 01:24:39;;;;;;;15.50;10.73;;;;;;;8.25;78.10;102368.66;3559151;40;20056;-64
2022/11/13 01:27:05;;;;;;;14.68;10.95;;;;;;;8.22;77.83;102366.06;3557643;40;20372;-64
2022/11/13 01:29:31;;;;;;;14.35;11.40;;;;;;;8.20;78.49;102369.69;3556357;40;20077;-64
2022/11/13 01:31:56;;;;;;;13.68;10.05;;;;;;;8.16;78.73;102365.34;3554740;40;20379;-63
2022/11/13 01:34:22;;;;;;;13.13;10.20;;;;;;;8.12;78.95;102368.13;3557459;40;20153;-63
2022/11/13 01:36:47;;;;;;;13.18;10.65;;;;;;;8.11;78.22;102358.28;3559205;40;20079;-64
2022/11/13 01:39:13;;;;;;;12.30;10.07;;;;;;;8.08;78.18;102363.72;3559406;40;20069;-63
2022/11/13 01:41:39;;;;;;;12.77;10.15;;;;;;;7.44;78.30;102258.38;3560970;40;20101;-64
2022/11/13 01:44:12;;;;;;;13.32;10.48;;;;;;;7.17;77.63;102218.03;3560613;40;20077;-63
2022/11/13 01:46:44;;;;;;;13.73;11.85;;;;;;;8.03;78.26;102368.34;3563372;40;20065;-63
2022/11/13 01:49:09;;;;;;;13.88;10.73;;;;;;;8.00;77.25;102357.72;3560234;40;20162;-63
2022/11/13 01:51:48;;;;;;;15.02;11.63;;;;;;;7.99;77.87;102352.38;3560177;40;20455;-64
2022/11/13 01:54:20;;;;;;;16.20;11.23;;;;;;;7.97;77.95;102357.81;3561199;40;20053;-64
2022/11/13 01:56:49;;;;;;;13.48;10.82;;;;;;;7.93;77.83;102356.13;3559213;40;20065;-64
2022/11/13 01:59:35;;;;;;;14.55;10.52;;;;;;;7.90;78.37;102340.16;3558725;40;20422;-64
2022/11/13 02:02:01;;;;;;;14.27;11.02;;;;;;;7.80;78.58;102325.22;3559031;40;20053;-64
2022/11/13 02:04:30;;;;;;;12.43;10.10;;;;;;;7.85;78.51;102334.03;3560757;40;20084;-63
2022/11/13 02:06:59;;;;;;;16.30;11.70;;;;;;;7.81;78.26;102329.69;3556554;40;20131;-63
2022/11/13 02:09:30;;;;;;;15.02;10.68;;;;;;;7.75;77.17;102335.19;3567709;40;20118;-64
2022/11/13 02:11:57;;;;;;;15.27;10.70;;;;;;;7.73;77.79;102334.34;3560489;40;20056;-64
2022/11/13 02:14:28;;;;;;;15.73;11.65;;;;;;;7.05;77.62;102225.50;3568724;40;20319;-63
2022/11/13 02:17:01;;;;;;;14.80;10.50;;;;;;;7.65;77.77;102324.72;3558518;40;20045;-63
2022/11/13 02:19:34;;;;;;;12.38;9.70;;;;;;;7.54;78.72;102309.84;3558462;40;20061;-63
2022/11/13 02:22:24;;;;;;;11.60;9.90;;;;;;;7.56;78.69;102313.38;3554888;40;20490;-63
2022/11/13 02:24:50;;;;;;;13.10;10.68;;;;;;;7.52;79.45;102331.31;3559398;40;20049;-63
2022/11/13 02:27:29;;;;;;;13.43;9.75;;;;;;;7.48;79.85;102305.50;3560433;40;20142;-63
2022/11/13 02:29:54;;;;;;;13.50;10.45;;;;;;;7.46;79.41;102301.16;3559620;40;20053;-63
2022/11/13 02:32:20;;;;;;;12.50;9.60;;;;;;;7.42;79.73;102300.31;3557820;40;20077;-63
2022/11/13 02:34:46;;;;;;;12.95;9.73;;;;;;;7.39;79.83;102301.31;3558815;40;20053;-63
2022/11/13 02:37:11;;;;;;;13.13;10.40;;;;;;;7.38;79.23;102298.66;3556735;40;20096;-63
2022/11/13 02:39:37;;;;;;;12.35;10.82;;;;;;;7.38;79.08;102293.28;3560938;40;20100;-63
2022/11/13 02:42:03;;;;;;;12.88;10.10;;;;;;;7.37;79.06;102300.44;3558832;40;20274;-63
2022/11/13 02:44:29;;;;;;;13.68;10.40;;;;;;;6.78;78.93;102195.81;3560292;40;20065;-63
2022/11/13 02:46:54;;;;;;;12.80;10.60;;;;;;;7.34;78.19;102292.50;3559370;40;20410;-63
2022/11/13 02:49:20;;;;;;;14.02;10.20;;;;;;;7.32;78.49;102299.66;3558948;40;20453;-63
2022/11/13 02:51:46;;;;;;;15.60;11.10;;;;;;;7.25;78.34;102283.81;3559878;40;20054;-63
2022/11/13 02:54:11;;;;;;;13.32;10.30;;;;;;;7.27;77.89;102284.69;3566067;40;20277;-63
2022/11/13 02:56:37;;;;;;;11.65;9.75;;;;;;;7.25;77.91;102291.84;3557153;40;20101;-65
2022/11/13 02:59:02;;;;;;;11.30;9.88;;;;;;;7.18;77.76;102275.94;3560982;40;20053;-63
2022/11/13 03:01:28;;;;;;;14.80;11.38;;;;;;;7.18;77.89;102275.06;3557165;40;20049;-63
2022/11/13 03:03:54;;;;;;;15.38;11.73;;;;;;;7.20;78.37;102278.59;3559079;40;20061;-63
2022/11/13 03:06:19;;;;;;;15.07;12.63;;;;;;;7.19;78.56;102288.41;3558964;40;20060;-63
2022/11/13 03:08:45;;;;;;;15.15;12.57;;;;;;;7.12;78.13;102260.06;3560238;40;20069;-63
2022/11/13 03:11:11;;;;;;;14.05;11.95;;;;;;;6.88;78.40;102224.13;3556537;40;20384;-63
2022/11/13 03:13:38;;;;;;;14.70;12.43;;;;;;;7.18;77.98;102275.94;3558945;40;20070;-63
2022/11/13 03:16:15;;;;;;;13.30;11.55;;;;;;;7.16;77.49;102260.84;3559776;40;20142;-63
2022/11/13 03:18:41;;;;;;;14.68;11.70;;;;;;;7.18;78.41;102264.38;3555817;40;20061;-63
2022/11/13 03:21:14;;;;;;;11.40;10.18;;;;;;;7.25;78.57;102257.06;3559807;40;20624;-63
2022/11/13 03:23:44;;;;;;;10.65;9.48;;;;;;;7.30;79.44;102252.50;3558013;40;20069;-63
2022/11/13 03:26:13;;;;;;;11.35;8.88;;;;;;;6.81;79.40;102163.69;3558349;40;20057;-63
2022/11/13 03:28:39;;;;;;;10.27;8.73;;;;;;;7.51;78.93;102259.94;3558881;40;20404;-64
2022/11/13 03:31:05;;;;;;;12.07;8.65;;;;;;;7.62;78.67;102262.38;3558316;40;20124;-63
2022/11/13 03:33:31;;;;;;;10.02;7.90;;;;;;;7.70;78.77;102272.84;3558942;40;20315;-64
2022/11/13 03:35:57;;;;;;;12.35;8.02;;;;;;;7.74;77.82;102255.78;3558424;40;20069;-63
2022/11/13 03:38:24;;;;;;;13.05;8.75;;;;;;;7.81;78.29;102255.59;3558510;40;20057;-64
2022/11/13 03:40:51;;;;;;;10.00;7.88;;;;;;;7.86;77.64;102252.78;3555356;40;20065;-63
2022/11/13 03:43:17;;;;;;;9.27;7.70;;;;;;;7.90;77.19;102255.34;3556024;40;20097;-63
2022/11/13 03:45:47;;;;;;;8.68;7.65;;;;;;;7.94;77.76;102250.78;3554152;40;20061;-63
2022/11/13 03:48:14;;;;;;;10.55;7.38;;;;;;;7.94;77.49;102242.75;3557863;40;20058;-64
2022/11/13 03:50:48;;;;;;;11.13;7.97;;;;;;;7.98;76.65;102233.69;3558413;40;20455;-63
2022/11/13 03:53:14;;;;;;;9.75;7.35;;;;;;;8.02;76.27;102243.38;3562199;40;20045;-64
2022/11/13 03:55:43;;;;;;;9.80;7.70;;;;;;;8.05;76.94;102232.59;3558016;40;20400;-64
2022/11/13 03:58:09;;;;;;;10.27;7.30;;;;;;;8.06;76.58;102239.72;3556705;40;20620;-63
2022/11/13 04:00:37;;;;;;;8.85;7.47;;;;;;;8.11;76.50;102232.41;3555843;40;20101;-63
2022/11/13 04:03:03;;;;;;;9.07;7.70;;;;;;;8.19;75.61;102231.34;3560106;40;20080;-64
2022/11/13 04:05:28;;;;;;;10.52;6.85;;;;;;;7.34;75.75;102082.97;3558552;40;20065;-63
2022/11/13 04:07:54;;;;;;;7.88;6.93;;;;;;;8.24;75.46;102221.34;3562479;40;20315;-63
2022/11/13 04:10:20;;;;;;;11.32;7.53;;;;;;;8.24;75.68;102216.88;3561332;40;20060;-63
2022/11/13 04:12:45;;;;;;;10.07;7.20;;;;;;;8.30;75.87;102222.03;3557821;40;20061;-63
2022/11/13 04:15:11;;;;;;;8.27;7.28;;;;;;;8.30;74.97;102213.13;3559558;40;20553;-63
2022/11/13 04:17:37;;;;;;;8.38;6.43;;;;;;;8.36;75.34;102220.97;3558214;40;20068;-63
2022/11/13 04:20:03;;;;;;;8.73;6.70;;;;;;;8.41;74.62;102216.41;3559833;40;20052;-63
2022/11/13 04:22:28;;;;;;;9.68;6.80;;;;;;;7.67;74.62;102076.66;3557785;40;20111;-63
2022/11/13 04:24:54;;;;;;;10.38;6.55;;;;;;;8.50;74.68;102213.44;3558987;40;20073;-63
2022/11/13 04:27:20;;;;;;;11.10;6.85;;;;;;;8.49;74.67;102206.31;3560268;40;20067;-63
2022/11/13 04:29:45;;;;;;;8.90;7.07;;;;;;;8.49;74.30;102203.63;3564134;40;20061;-63
2022/11/13 04:32:11;;;;;;;9.68;6.50;;;;;;;8.48;74.43;102212.59;3558246;40;20192;-63
2022/11/13 04:34:36;;;;;;;8.65;6.22;;;;;;;8.49;74.18;102200.94;3557854;40;20412;-64
2022/11/13 04:37:02;;;;;;;7.45;6.68;;;;;;;7.70;73.17;102074.81;3558916;40;20049;-64
2022/11/13 04:39:27;;;;;;;8.90;7.13;;;;;;;8.50;73.71;102197.38;3556249;40;20056;-63
2022/11/13 04:44:37;;;;;;;8.18;6.63;;;;;;;8.50;73.04;102193.78;3558933;40;20135;-63
2022/11/13 04:47:03;;;;;;;9.68;7.10;;;;;;;7.86;73.32;102092.16;3556508;40;20057;-63
2022/11/13 04:49:29;;;;;;;8.93;6.80;;;;;;;8.45;73.06;102191.25;3556815;40;20103;-63
2022/11/13 04:51:54;;;;;;;9.75;7.03;;;;;;;8.09;73.88;102143.22;3559496;40;20061;-63
2022/11/13 04:54:20;;;;;;;10.38;7.05;;;;;;;8.37;74.03;102194.16;3559187;40;20323;-65
2022/11/13 04:56:46;;;;;;;8.40;6.95;;;;;;;8.24;73.59;102187.41;3556720;40;20052;-63
2022/11/13 04:59:11;;;;;;;7.65;6.60;;;;;;;8.31;73.94;102197.03;3557038;40;20076;-63
2022/11/13 05:01:37;;;;;;;8.00;6.97;;;;;;;8.30;74.06;102202.41;3555945;40;20072;-63
2022/11/13 05:04:03;;;;;;;8.55;7.13;;;;;;;7.53;73.68;102067.28;3555470;40;20308;-63
2022/11/13 05:06:29;;;;;;;8.68;7.00;;;;;;;8.26;74.01;102198.09;3556776;40;20078;-64
2022/11/13 05:08:54;;;;;;;8.48;7.15;;;;;;;8.23;74.33;102198.16;3559643;40;20056;-63
2022/11/13 05:11:20;;;;;;;8.90;6.88;;;;;;;8.21;74.37;102200.00;3559926;40;20060;-63
2022/11/13 05:13:46;;;;;;;10.65;7.20;;;;;;;8.18;74.25;102198.28;3564853;40;20060;-63
2022/11/13 05:16:14;;;;;;;9.30;7.03;;;;;;;8.14;73.82;102194.84;3557150;40;20064;-64
2022/11/13 05:18:40;;;;;;;10.55;7.05;;;;;;;7.28;74.11;102051.06;3555232;40;20049;-63
2022/11/13 05:21:08;;;;;;;9.05;6.75;;;;;;;8.06;74.65;102196.00;3557446;40;20068;-63
2022/11/13 05:23:34;;;;;;;9.07;7.32;;;;;;;8.01;74.05;102188.09;3560130;40;20065;-62
2022/11/13 05:26:10;;;;;;;9.48;6.95;;;;;;;7.94;74.86;102191.88;3559637;40;20407;-63
2022/11/13 05:28:37;;;;;;;11.93;7.53;;;;;;;7.90;74.54;102184.88;3558414;40;20065;-63
2022/11/13 05:31:13;;;;;;;11.60;6.82;;;;;;;7.83;74.60;102184.16;3558265;40;20130;-62
2022/11/13 05:33:41;;;;;;;9.30;7.28;;;;;;;6.92;74.18;102036.00;3559240;40;20397;-62
2022/11/13 05:36:14;;;;;;;8.55;6.90;;;;;;;7.32;74.10;102103.53;3557848;40;20484;-62
2022/11/13 05:38:41;;;;;;;10.50;7.35;;;;;;;7.54;74.08;102160.88;3559977;40;20065;-63
2022/11/13 05:41:14;;;;;;;10.88;7.35;;;;;;;7.52;74.00;102168.09;3559003;40;20143;-63
2022/11/13 05:43:42;;;;;;;9.88;7.25;;;;;;;7.39;74.82;102167.53;3556202;40;20053;-63
2022/11/13 05:46:15;;;;;;;10.25;7.53;;;;;;;6.73;74.89;102070.34;3557799;40;20396;-63
2022/11/13 05:48:42;;;;;;;9.80;7.05;;;;;;;7.27;75.16;102177.69;3558207;40;20119;-63
2022/11/13 05:51:16;;;;;;;11.57;7.68;;;;;;;7.19;74.75;102180.53;3556505;40;23796;-63
2022/11/13 05:53:44;;;;;;;10.63;7.03;;;;;;;7.13;75.09;102176.22;3566075;40;20131;-63
2022/11/13 05:56:17;;;;;;;11.43;7.40;;;;;;;7.08;75.40;102178.16;3557930;40;20104;-63
2022/11/13 05:58:44;;;;;;;10.68;7.45;;;;;;;6.98;75.26;102173.97;3557976;40;20053;-63
2022/11/13 06:01:18;;;;;;;8.77;7.07;;;;;;;6.98;75.07;102182.88;3565531;40;20347;-63
2022/11/13 06:03:45;;;;;;;9.38;6.80;;;;;;;6.93;74.89;102178.53;3559672;40;20304;-63
2022/11/13 06:06:19;;;;;;;9.77;6.75;;;;;;;6.88;74.95;102176.00;3562460;40;20057;-63
2022/11/13 06:08:46;;;;;;;8.55;6.63;;;;;;;6.84;75.50;102178.78;3559339;40;20057;-63
2022/11/13 06:11:16;;;;;;;10.13;7.45;;;;;;;6.12;75.24;102070.97;3557490;40;20052;-62
2022/11/13 06:13:43;;;;;;;7.38;6.47;;;;;;;6.72;75.32;102167.47;3565094;40;20060;-63
2022/11/13 06:16:13;;;;;;;11.93;8.05;;;;;;;6.67;75.57;102166.69;3556024;40;20127;-62
2022/11/13 06:18:41;;;;;;;18.25;12.40;;;;;;;6.64;75.04;102163.22;3556273;40;20623;-63
2022/11/13 06:21:20;;;;;;;19.05;12.10;;;;;;;6.61;75.50;102156.16;3559392;40;20064;-63
2022/11/13 06:23:47;;;;;;;15.00;8.90;;;;;;;5.47;75.79;101971.03;3557218;40;20134;-63
2022/11/13 06:26:21;;;;;;;12.95;9.45;;;;;;;6.45;76.59;102134.28;3566616;40;20093;-63
2022/11/13 06:28:47;;;;;;;11.77;8.60;;;;;;;5.89;76.71;102040.31;3560172;40;20059;-63
2022/11/13 06:31:23;;;;;;;11.00;7.90;;;;;;;6.50;76.61;102150.19;3557088;40;20577;-63
2022/11/13 06:33:49;;;;;;;12.57;8.30;;;;;;;6.47;76.79;102150.25;3557533;40;20061;-62
2022/11/13 06:36:22;;;;;;;10.63;7.90;;;;;;;6.46;77.19;102145.84;3557251;40;20323;-63
2022/11/13 06:38:49;;;;;;;12.10;8.18;;;;;;;6.45;77.64;102144.09;3560573;40;22533;-62
2022/11/13 06:41:21;;;;;;;10.32;7.45;;;;;;;6.42;77.33;102134.34;3559129;40;20057;-63
2022/11/13 06:43:47;;;;;;;10.23;8.55;;;;;;;6.39;77.49;102133.53;3565649;40;20059;-63
2022/11/13 06:46:20;;;;;;;9.77;7.70;;;;;;;6.38;77.95;102129.13;3557483;40;20312;-63
2022/11/13 06:48:47;;;;;;;13.93;8.15;;;;;;;6.39;77.56;102131.75;3555606;40;20058;-63
2022/11/13 06:51:29;;;;;;;10.57;7.35;;;;;;;6.35;77.46;102140.75;3559508;40;20061;-62
2022/11/13 06:53:56;;;;;;;9.68;7.60;;;;;;;6.36;77.14;102138.94;3560402;40;20057;-63
2022/11/13 06:56:23;;;;;;;10.02;7.57;;;;;;;5.68;77.61;102016.81;3555578;40;20466;-64
2022/11/13 06:58:49;;;;;;;10.10;7.72;;;;;;;6.27;77.71;102134.69;3555754;40;20050;-63
2022/11/13 07:01:20;;;;;;;9.10;7.68;;;;;;;6.30;77.99;102133.75;3556108;40;20311;-65
2022/11/13 07:03:46;;;;;;;11.50;7.72;;;;;;;6.25;78.00;102136.53;3558920;40;20058;-63
2022/11/13 07:06:22;;;;;;;11.80;7.57;;;;;;;6.26;78.69;102133.81;3561376;40;20057;-63
2022/11/13 07:08:48;;;;;;;10.63;8.15;;;;;;;6.25;78.76;102140.09;3561663;40;20042;-64
2022/11/13 07:11:18;;;;;;;9.50;7.93;;;;;;;6.11;78.03;102111.94;3565710;40;20074;-63
2022/11/13 07:13:45;;;;;;;11.98;7.88;;;;;;;6.22;78.45;102134.81;3557371;40;20056;-64
2022/11/13 07:16:12;;;;;;;11.75;7.80;;;;;;;5.43;78.31;102003.13;3559454;40;20096;-63
2022/11/13 07:18:38;;;;;;;9.93;7.78;;;;;;;6.19;77.54;102134.88;3558280;40;20060;-63
2022/11/13 07:21:08;;;;;;;10.60;7.65;;;;;;;6.18;77.71;102135.78;3558616;40;20057;-63
2022/11/13 07:23:38;;;;;;;8.48;7.50;;;;;;;6.17;77.60;102128.69;3558587;40;20148;-64
2022/11/13 07:26:04;;;;;;;11.98;8.07;;;;;;;6.14;77.25;102128.75;3558247;40;20131;-63
2022/11/13 07:28:30;;;;;;;11.90;7.82;;;;;;;5.49;76.90;102006.53;3556051;40;20057;-64
2022/11/13 07:30:57;;;;;;;10.32;7.70;;;;;;;6.16;77.20;102120.72;3557113;40;20099;-64
2022/11/13 07:33:23;;;;;;;10.98;7.60;;;;;;;5.44;77.16;101988.88;3557839;40;20053;-63
2022/11/13 07:35:49;;;;;;;8.75;7.50;;;;;;;6.23;77.07;102127.69;3559076;40;20049;-63
2022/11/13 07:38:14;;;;;;;12.10;7.70;;;;;;;6.26;76.95;102133.81;3557216;40;20060;-63
2022/11/13 07:40:40;;;;;;;8.88;7.40;;;;;;;6.28;76.92;102125.78;3560577;40;20057;-63
2022/11/13 07:43:06;;;;;;;9.45;7.55;;;;;;;5.73;76.52;102030.91;3566716;40;20061;-63
2022/11/13 07:45:31;;;;;;;10.25;7.15;;;;;;;6.35;77.06;102121.19;3557930;40;20079;-63
2022/11/13 07:48:02;;;;;;;9.25;7.38;;;;;;;6.37;76.78;102116.66;3557497;40;20416;-63
2022/11/13 07:50:32;;;;;;;11.02;7.65;;;;;;;6.43;77.52;102124.53;3557564;40;20067;-63
2022/11/13 07:53:02;;;;;;;9.77;8.32;;;;;;;6.47;77.75;102116.44;3560729;40;20057;-63
2022/11/13 07:55:29;;;;;;;10.07;7.85;;;;;;;6.51;78.06;102112.75;3556843;40;20065;-63
2022/11/13 07:57:59;;;;;;;9.80;8.20;;;;;;;6.52;77.71;102102.94;3558380;40;20135;-64
2022/11/13 08:00:28;;;;;;;10.52;8.30;;;;;;;6.65;77.91;102123.09;3558044;40;20053;-63
2022/11/13 08:02:53;;;;;;;11.57;8.70;;;;;;;6.71;77.50;102114.94;3556956;40;20045;-64
2022/11/13 08:05:22;;;;;;;11.85;8.40;;;;;;;6.71;77.39;102100.69;3556029;40;20435;-63
2022/11/13 08:07:51;;;;;;;11.80;8.13;;;;;;;6.89;77.79;102118.06;3558729;40;20392;-63
2022/11/13 08:10:19;;;;;;;9.18;8.07;;;;;;;6.94;76.72;102116.13;3554450;40;20095;-63
2022/11/13 08:12:46;;;;;;;10.13;8.77;;;;;;;7.03;77.09;102115.03;3555019;40;20505;-63
2022/11/13 08:15:12;;;;;;;10.73;8.20;;;;;;;7.11;76.49;102113.03;3559059;40;20483;-63
2022/11/13 08:17:38;;;;;;;8.80;7.57;;;;;;;7.20;76.27;102111.00;3556430;40;20041;-63
2022/11/13 08:20:06;;;;;;;10.75;8.13;;;;;;;7.13;76.21;102074.63;3557300;40;20305;-63
2022/11/13 08:22:32;;;;;;;11.10;7.60;;;;;;;7.43;76.51;102113.03;3556719;40;20103;-63
2022/11/13 08:24:58;;;;;;;9.43;8.23;;;;;;;7.55;75.38;102106.47;3555426;40;20062;-63
2022/11/13 08:27:24;;;;;;;9.15;7.75;;;;;;;7.64;75.79;102107.97;3557277;40;20423;-63
2022/11/13 08:29:52;;;;;;;9.82;8.02;;;;;;;7.43;75.37;102045.28;3553989;40;20089;-63
2022/11/13 08:32:19;;;;;;;8.50;7.38;;;;;;;7.92;75.11;102105.34;3555054;40;20423;-62
2022/11/13 08:34:44;;;;;;;9.68;6.93;;;;;;;8.05;74.44;102111.22;3565455;40;20401;-62
2022/11/13 08:37:10;;;;;;;9.82;7.88;;;;;;;7.66;73.96;102010.66;3556620;40;20064;-62
2022/11/13 08:39:36;;;;;;;10.32;7.88;;;;;;;7.39;73.82;101947.28;3557044;40;20400;-63
2022/11/13 08:42:03;;;;;;;9.77;7.43;;;;;;;8.45;73.46;102094.78;3557272;40;20418;-63
2022/11/13 08:44:29;;;;;;;9.20;6.88;;;;;;;8.55;73.08;102090.88;3558463;40;20056;-63
2022/11/13 08:46:56;;;;;;;8.75;7.28;;;;;;;7.93;71.83;101969.69;3563588;40;20053;-62
2022/11/13 08:49:21;;;;;;;10.82;7.97;;;;;;;8.74;71.63;102079.56;3556661;40;20336;-62
2022/11/13 08:51:47;;;;;;;8.88;7.75;;;;;;;9.03;71.69;102100.84;3555683;40;20068;-63
2022/11/13 08:54:13;;;;;;;9.80;7.60;;;;;;;9.21;69.78;102099.34;3558000;40;20049;-63
2022/11/13 08:56:38;;;;;;;10.30;7.30;;;;;;;9.34;70.08;102086.38;3557523;40;20056;-63
2022/11/13 08:59:04;;;;;;;9.82;7.55;;;;;;;9.51;69.68;102092.00;3556831;40;20049;-62
2022/11/13 09:01:30;;;;;;;12.43;7.18;;;;;;;9.67;69.31;102084.25;3558948;40;20548;-62
2022/11/13 09:03:57;;;;;;;8.85;6.97;;;;;;;9.76;67.84;102094.63;3558530;40;20064;-62
2022/11/13 09:06:24;;;;;;;9.95;7.32;;;;;;;9.88;67.73;102090.59;3563750;40;20344;-62
2022/11/13 09:08:50;;;;;;;7.68;6.85;;;;;;;10.03;67.58;102093.63;3558248;40;20419;-62
2022/11/13 09:11:16;;;;;;;7.50;6.70;;;;;;;10.11;67.73;102088.81;3555864;40;20057;-62
2022/11/13 09:13:42;;;;;;;10.40;7.03;;;;;;;9.56;66.96;101978.22;3556154;40;20156;-62
2022/11/13 09:16:07;;;;;;;10.73;6.78;;;;;;;10.29;67.35;102085.44;3553782;40;20073;-63
2022/11/13 09:18:33;;;;;;;7.97;6.38;;;;;;;10.36;66.05;102075.31;3554222;40;20320;-63
2022/11/13 09:21:02;;;;;;;7.60;6.55;;;;;;;9.91;65.24;101963.38;3556361;40;20070;-63
2022/11/13 09:23:29;;;;;;;8.52;6.90;;;;;;;10.75;64.60;102077.25;3560493;40;20049;-63
2022/11/13 09:25:55;;;;;;;7.40;6.53;;;;;;;11.04;64.23;102076.03;3557728;40;20059;-63
2022/11/13 09:28:21;;;;;;;8.23;6.18;;;;;;;11.32;62.56;102071.16;3557787;40;20086;-63
2022/11/13 09:30:46;;;;;;;7.35;6.25;;;;;;;11.66;63.07;102077.69;3557772;40;20053;-61
2022/11/13 09:33:14;;;;;;;7.03;6.20;;;;;;;11.85;62.57;102062.44;3557203;40;20079;-61
2022/11/13 09:35:42;;;;;;;7.88;5.90;;;;;;;12.24;60.67;102069.56;3556356;40;20053;-62
2022/11/13 09:38:13;;;;;;;6.25;5.60;;;;;;;12.54;60.72;102077.09;3559343;40;20398;-61
2022/11/13 09:41:09;;;;;;;6.43;5.75;;;;;;;12.91;58.92;102077.94;3556002;40;20405;-62
2022/11/13 09:43:54;;;;;;;7.03;6.22;;;;;;;13.24;58.63;102088.78;3557482;40;20081;-62
2022/11/13 09:47:11;;;;;;;6.60;5.82;;;;;;;13.31;55.55;102051.53;3556330;40;20385;-62
2022/11/13 09:49:48;;;;;;;7.88;5.80;;;;;;;13.79;55.76;102079.53;3535837;40;20080;-62
2022/11/13 09:52:28;;;;;;;8.00;6.00;;;;;;;14.02;54.22;102080.94;3558765;40;20054;-62
2022/11/13 09:54:53;;;;;;;7.90;5.28;;;;;;;14.25;53.16;102077.84;3558039;40;20127;-62
2022/11/13 09:57:34;;;;;;;6.90;5.90;;;;;;;14.39;52.87;102074.31;3556223;40;20053;-62
2022/11/13 10:00:28;;;;;;;6.70;5.55;;;;;;;14.62;52.34;102073.03;3558525;40;20056;-62
2022/11/13 10:03:33;;;;;;;7.72;5.35;;;;;;;14.84;51.89;102069.91;3559205;40;20099;-63
2022/11/13 10:06:23;;;;;;;7.10;5.38;;;;;;;15.08;50.42;102072.97;3566166;40;20077;-63
2022/11/13 10:09:09;;;;;;;6.40;5.28;;;;;;;15.35;50.55;102070.41;3559972;40;20300;-63
2022/11/13 10:12:02;;;;;;;6.70;5.68;;;;;;;15.63;49.96;102065.97;3555473;40;20499;-63
2022/11/13 10:14:41;;;;;;;10.77;5.93;;;;;;;15.80;49.39;102076.66;3558033;40;20057;-63
2022/11/13 10:17:35;;;;;;;6.07;5.43;;;;;;;15.97;48.54;102073.72;3566075;40;20057;-62
2022/11/13 10:20:27;;;;;;;6.45;5.40;;;;;;;16.18;49.07;102067.88;3554788;40;20376;-63
2022/11/13 10:23:29;;;;;;;7.05;5.55;;;;;;;16.41;47.76;102064.50;3554442;40;20084;-62
2022/11/13 10:26:11;;;;;;;5.75;5.22;;;;;;;16.54;48.82;102060.97;3559214;40;20347;-61
2022/11/13 10:28:39;;;;;;;5.70;5.13;;;;;;;16.70;47.22;102062.53;3557570;40;20152;-62
2022/11/13 10:31:05;;;;;;;6.05;5.00;;;;;;;16.40;45.46;101970.50;3560066;40;20053;-62
2022/11/13 10:33:30;;;;;;;6.65;5.20;;;;;;;17.12;46.05;102057.84;3559301;40;20135;-62
2022/11/13 10:36:13;;;;;;;7.47;5.30;;;;;;;17.21;47.07;102050.91;3560543;40;20057;-62
2022/11/13 10:38:49;;;;;;;6.28;4.68;;;;;;;17.34;44.65;102051.78;3561133;40;20132;-62
2022/11/13 10:41:19;;;;;;;5.95;4.22;;;;;;;17.55;44.22;102045.81;3558691;40;20064;-62
2022/11/13 10:44:20;;;;;;;5.10;4.50;;;;;;;17.66;43.53;102035.00;3558775;40;20053;-62
2022/11/13 10:46:45;;;;;;;5.40;4.47;;;;;;;17.21;42.75;101935.91;3557326;40;20056;-62
2022/11/13 10:49:21;;;;;;;5.75;4.80;;;;;;;17.88;41.95;102028.03;3560657;40;20069;-62
2022/11/13 10:51:56;;;;;;;6.15;5.13;;;;;;;17.99;42.32;102011.81;3560065;40;20061;-62
2022/11/13 10:54:31;;;;;;;5.07;4.50;;;;;;;18.14;42.28;102017.94;3558460;40;20201;-62
2022/11/13 10:57:03;;;;;;;6.65;5.03;;;;;;;18.33;41.90;102021.91;3559410;40;20378;-65
2022/11/13 10:59:43;;;;;;;9.25;5.03;;;;;;;18.45;42.23;102005.59;3559205;40;20147;-62
2022/11/13 11:02:21;;;;;;;6.88;4.63;;;;;;;18.65;41.18;102012.22;3558889;40;20076;-62
2022/11/13 11:04:47;;;;;;;6.82;4.63;;;;;;;18.81;42.23;102006.50;3558715;40;20053;-62
2022/11/13 11:07:20;;;;;;;6.05;4.75;;;;;;;18.80;39.58;101989.28;3561295;40;20384;-65
2022/11/13 11:09:49;;;;;;;5.88;4.93;;;;;;;18.90;39.86;102003.06;3560200;40;20065;-62
2022/11/13 11:12:22;;;;;;;7.13;4.72;;;;;;;18.92;41.64;101995.66;3556630;40;20089;-62
2022/11/13 11:14:57;;;;;;;6.60;5.03;;;;;;;19.11;40.93;101998.66;3564732;40;20288;-62
2022/11/13 11:17:36;;;;;;;7.05;4.80;;;;;;;19.28;40.18;101990.97;3558900;40;20080;-62
2022/11/13 11:20:22;;;;;;;5.63;4.75;;;;;;;19.47;39.38;102000.31;3556626;40;20061;-62
2022/11/13 11:22:58;;;;;;;7.20;4.88;;;;;;;19.12;39.38;101918.59;3560121;40;20127;-62
2022/11/13 11:25:39;;;;;;;6.90;4.85;;;;;;;19.77;39.07;101997.97;3559119;40;20053;-62
2022/11/13 11:28:27;;;;;;;5.40;4.90;;;;;;;19.87;38.80;101997.06;3560437;40;20049;-62
2022/11/13 11:31:26;;;;;;;6.60;5.35;;;;;;;20.03;38.50;101988.47;3557367;40;20057;-63
2022/11/13 11:33:57;;;;;;;5.30;4.80;;;;;;;20.30;37.64;101979.84;3558224;40;20048;-63
2022/11/13 11:36:58;;;;;;;5.18;4.68;;;;;;;20.47;37.95;101986.56;3558105;40;20061;-63
2022/11/13 11:40:01;;;;;;;5.30;4.60;;;;;;;20.51;37.67;101979.88;3557829;40;20057;-63